sensor_id;sensor_type;location;lat;lon;timestamp;temperature;humidity
14771;DHT22;7477;45.222;5.688;2022-09-09T00:04:39;19.30;99.90
14771;DHT22;7477;45.222;5.688;2022-09-09T00:08:02;19.20;99.90
14771;DHT22;7477;45.222;5.688;2022-09-09T00:11:52;19.10;99.90
14771;DHT22;7477;45.222;5.688;2022-09-09T00:15:20;19.10;99.90
14771;DHT22;7477;45.222;5.688;2022-09-09T00:19:10;19.10;99.90
14771;DHT22;7477;45.222;5.688;2022-09-09T00:22:33;19.10;99.90
14771;DHT22;7477;45.222;5.688;2022-09-09T00:26:08;19.10;99.90
14771;DHT22;7477;45.222;5.688;2022-09-09T00:29:55;19.00;99.90
14771;DHT22;7477;45.222;5.688;2022-09-09T00:33:22;19.00;99.90
14771;DHT22;7477;45.222;5.688;2022-09-09T00:36:42;18.90;99.90
14771;DHT22;7477;45.222;5.688;2022-09-09T00:40:33;18.90;99.90
14771;DHT22;7477;45.222;5.688;2022-09-09T00:44:20;18.90;99.90
14771;DHT22;7477;45.222;5.688;2022-09-09T00:47:50;18.70;99.90
14771;DHT22;7477;45.222;5.688;2022-09-09T00:51:28;18.70;99.90
14771;DHT22;7477;45.222;5.688;2022-09-09T00:58:28;18.50;99.90
14771;DHT22;7477;45.222;5.688;2022-09-09T01:01:48;18.50;99.90
14771;DHT22;7477;45.222;5.688;2022-09-09T01:05:15;18.40;99.90
14771;DHT22;7477;45.222;5.688;2022-09-09T01:15:34;18.40;99.90
14771;DHT22;7477;45.222;5.688;2022-09-09T01:18:54;18.30;99.90
14771;DHT22;7477;45.222;5.688;2022-09-09T01:22:39;18.20;99.90
14771;DHT22;7477;45.222;5.688;2022-09-09T01:26:28;18.10;99.90
14771;DHT22;7477;45.222;5.688;2022-09-09T01:29:49;18.10;99.90
14771;DHT22;7477;45.222;5.688;2022-09-09T01:33:13;18.10;99.90
14771;DHT22;7477;45.222;5.688;2022-09-09T01:40:02;17.90;99.90
14771;DHT22;7477;45.222;5.688;2022-09-09T01:43:22;17.90;99.90
14771;DHT22;7477;45.222;5.688;2022-09-09T01:46:42;17.90;99.90
14771;DHT22;7477;45.222;5.688;2022-09-09T01:50:20;17.90;99.90
14771;DHT22;7477;45.222;5.688;2022-09-09T01:53:58;17.90;99.90
14771;DHT22;7477;45.222;5.688;2022-09-09T02:01:49;17.60;99.90
14771;DHT22;7477;45.222;5.688;2022-09-09T02:08:47;17.50;99.90
14771;DHT22;7477;45.222;5.688;2022-09-09T02:12:14;17.50;99.90
14771;DHT22;7477;45.222;5.688;2022-09-09T02:19:19;17.40;99.90
14771;DHT22;7477;45.222;5.688;2022-09-09T02:22:47;17.40;99.90
14771;DHT22;7477;45.222;5.688;2022-09-09T02:26:10;17.30;99.90
14771;DHT22;7477;45.222;5.688;2022-09-09T02:29:35;17.30;99.90
14771;DHT22;7477;45.222;5.688;2022-09-09T02:32:57;17.20;99.90
14771;DHT22;7477;45.222;5.688;2022-09-09T02:36:19;17.20;99.90
14771;DHT22;7477;45.222;5.688;2022-09-09T02:39:40;17.10;99.90
14771;DHT22;7477;45.222;5.688;2022-09-09T02:43:01;17.10;99.90
14771;DHT22;7477;45.222;5.688;2022-09-09T02:50:30;17.00;99.90
14771;DHT22;7477;45.222;5.688;2022-09-09T02:57:26;17.00;99.90
14771;DHT22;7477;45.222;5.688;2022-09-09T03:00:49;17.00;99.90
14771;DHT22;7477;45.222;5.688;2022-09-09T03:04:09;16.90;99.90
14771;DHT22;7477;45.222;5.688;2022-09-09T03:07:28;16.90;99.90
14771;DHT22;7477;45.222;5.688;2022-09-09T03:10:47;16.90;99.90
14771;DHT22;7477;45.222;5.688;2022-09-09T03:14:07;16.90;99.90
14771;DHT22;7477;45.222;5.688;2022-09-09T03:17:27;16.80;99.90
14771;DHT22;7477;45.222;5.688;2022-09-09T03:20:47;16.80;99.90
14771;DHT22;7477;45.222;5.688;2022-09-09T03:24:10;16.80;99.90
14771;DHT22;7477;45.222;5.688;2022-09-09T03:27:29;16.80;99.90
14771;DHT22;7477;45.222;5.688;2022-09-09T03:30:48;16.80;99.90
14771;DHT22;7477;45.222;5.688;2022-09-09T03:34:08;16.80;99.90
14771;DHT22;7477;45.222;5.688;2022-09-09T03:37:27;16.80;99.90
14771;DHT22;7477;45.222;5.688;2022-09-09T03:40:55;16.70;99.90
14771;DHT22;7477;45.222;5.688;2022-09-09T03:44:14;16.80;99.90
14771;DHT22;7477;45.222;5.688;2022-09-09T03:47:34;16.80;99.90
14771;DHT22;7477;45.222;5.688;2022-09-09T03:50:54;16.80;99.90
14771;DHT22;7477;45.222;5.688;2022-09-09T03:54:14;16.80;99.90
14771;DHT22;7477;45.222;5.688;2022-09-09T03:57:34;16.70;99.90
14771;DHT22;7477;45.222;5.688;2022-09-09T04:01:14;16.70;99.90
14771;DHT22;7477;45.222;5.688;2022-09-09T04:04:33;16.60;99.90
14771;DHT22;7477;45.222;5.688;2022-09-09T04:07:52;16.60;99.90
14771;DHT22;7477;45.222;5.688;2022-09-09T04:11:11;16.60;99.90
14771;DHT22;7477;45.222;5.688;2022-09-09T04:14:30;16.50;99.90
14771;DHT22;7477;45.222;5.688;2022-09-09T04:17:50;16.50;99.90
14771;DHT22;7477;45.222;5.688;2022-09-09T04:21:10;16.50;99.90
14771;DHT22;7477;45.222;5.688;2022-09-09T04:24:31;16.50;99.90
14771;DHT22;7477;45.222;5.688;2022-09-09T04:27:57;16.40;99.90
14771;DHT22;7477;45.222;5.688;2022-09-09T04:31:19;16.30;99.90
14771;DHT22;7477;45.222;5.688;2022-09-09T04:34:40;16.30;99.90
14771;DHT22;7477;45.222;5.688;2022-09-09T04:38:00;16.30;99.90
14771;DHT22;7477;45.222;5.688;2022-09-09T04:41:21;16.30;99.90
14771;DHT22;7477;45.222;5.688;2022-09-09T04:44:40;16.20;99.90
14771;DHT22;7477;45.222;5.688;2022-09-09T04:48:00;16.20;99.90
14771;DHT22;7477;45.222;5.688;2022-09-09T04:51:19;16.20;99.90
14771;DHT22;7477;45.222;5.688;2022-09-09T04:54:39;16.20;99.90
14771;DHT22;7477;45.222;5.688;2022-09-09T04:58:04;16.20;99.90
14771;DHT22;7477;45.222;5.688;2022-09-09T05:01:23;16.30;99.90
14771;DHT22;7477;45.222;5.688;2022-09-09T05:04:43;16.20;99.90
14771;DHT22;7477;45.222;5.688;2022-09-09T05:08:07;16.20;99.90
14771;DHT22;7477;45.222;5.688;2022-09-09T05:11:29;16.20;99.90
14771;DHT22;7477;45.222;5.688;2022-09-09T05:14:49;16.10;99.90
14771;DHT22;7477;45.222;5.688;2022-09-09T05:18:09;16.10;99.90
14771;DHT22;7477;45.222;5.688;2022-09-09T05:21:29;16.10;99.90
14771;DHT22;7477;45.222;5.688;2022-09-09T05:24:50;16.10;99.90
14771;DHT22;7477;45.222;5.688;2022-09-09T05:28:12;16.10;99.90
14771;DHT22;7477;45.222;5.688;2022-09-09T05:31:32;16.10;99.90
14771;DHT22;7477;45.222;5.688;2022-09-09T05:34:52;16.00;99.90
14771;DHT22;7477;45.222;5.688;2022-09-09T05:38:11;16.10;99.90
14771;DHT22;7477;45.222;5.688;2022-09-09T05:41:30;16.10;99.90
14771;DHT22;7477;45.222;5.688;2022-09-09T05:44:50;16.10;99.90
14771;DHT22;7477;45.222;5.688;2022-09-09T05:48:09;16.00;99.90
14771;DHT22;7477;45.222;5.688;2022-09-09T05:51:29;16.00;99.90
14771;DHT22;7477;45.222;5.688;2022-09-09T05:54:51;16.00;99.90
14771;DHT22;7477;45.222;5.688;2022-09-09T05:58:11;16.00;99.90
14771;DHT22;7477;45.222;5.688;2022-09-09T06:01:35;16.00;99.90
14771;DHT22;7477;45.222;5.688;2022-09-09T06:04:55;16.00;99.90
14771;DHT22;7477;45.222;5.688;2022-09-09T06:08:15;16.00;99.90
14771;DHT22;7477;45.222;5.688;2022-09-09T06:11:36;16.00;99.90
14771;DHT22;7477;45.222;5.688;2022-09-09T06:14:56;16.00;99.90
14771;DHT22;7477;45.222;5.688;2022-09-09T06:18:15;16.10;99.90
14771;DHT22;7477;45.222;5.688;2022-09-09T06:21:37;16.10;99.90
14771;DHT22;7477;45.222;5.688;2022-09-09T06:24:56;16.00;99.90
14771;DHT22;7477;45.222;5.688;2022-09-09T06:28:16;16.00;99.90
14771;DHT22;7477;45.222;5.688;2022-09-09T06:31:36;15.90;99.90
14771;DHT22;7477;45.222;5.688;2022-09-09T06:34:55;15.90;99.90
14771;DHT22;7477;45.222;5.688;2022-09-09T06:38:14;15.90;99.90
14771;DHT22;7477;45.222;5.688;2022-09-09T06:41:34;15.90;99.90
14771;DHT22;7477;45.222;5.688;2022-09-09T06:44:53;16.00;99.90
14771;DHT22;7477;45.222;5.688;2022-09-09T06:48:12;15.90;99.90
14771;DHT22;7477;45.222;5.688;2022-09-09T06:51:37;15.90;99.90
14771;DHT22;7477;45.222;5.688;2022-09-09T06:55:01;16.00;99.90
14771;DHT22;7477;45.222;5.688;2022-09-09T06:58:21;16.00;99.90
14771;DHT22;7477;45.222;5.688;2022-09-09T07:01:42;16.00;99.90
14771;DHT22;7477;45.222;5.688;2022-09-09T07:05:06;16.00;99.90
14771;DHT22;7477;45.222;5.688;2022-09-09T07:08:25;16.00;99.90
14771;DHT22;7477;45.222;5.688;2022-09-09T07:11:48;16.10;99.90
14771;DHT22;7477;45.222;5.688;2022-09-09T07:15:08;16.10;99.90
14771;DHT22;7477;45.222;5.688;2022-09-09T07:18:28;16.10;99.90
14771;DHT22;7477;45.222;5.688;2022-09-09T07:21:48;16.10;99.90
14771;DHT22;7477;45.222;5.688;2022-09-09T07:25:08;16.00;99.90
14771;DHT22;7477;45.222;5.688;2022-09-09T07:28:27;16.10;99.90
14771;DHT22;7477;45.222;5.688;2022-09-09T07:31:49;16.10;99.90
14771;DHT22;7477;45.222;5.688;2022-09-09T07:35:08;16.10;99.90
14771;DHT22;7477;45.222;5.688;2022-09-09T07:38:27;16.20;99.90
14771;DHT22;7477;45.222;5.688;2022-09-09T07:41:49;16.30;99.90
14771;DHT22;7477;45.222;5.688;2022-09-09T07:45:10;16.30;99.90
14771;DHT22;7477;45.222;5.688;2022-09-09T07:48:29;16.50;99.90
14771;DHT22;7477;45.222;5.688;2022-09-09T07:51:49;16.70;99.90
14771;DHT22;7477;45.222;5.688;2022-09-09T07:55:08;16.80;99.90
14771;DHT22;7477;45.222;5.688;2022-09-09T07:58:28;16.80;99.90
14771;DHT22;7477;45.222;5.688;2022-09-09T08:01:49;16.90;99.90
14771;DHT22;7477;45.222;5.688;2022-09-09T08:05:13;17.00;99.90
14771;DHT22;7477;45.222;5.688;2022-09-09T08:08:33;17.10;99.90
14771;DHT22;7477;45.222;5.688;2022-09-09T08:11:54;17.20;99.90
14771;DHT22;7477;45.222;5.688;2022-09-09T08:15:14;17.20;99.90
14771;DHT22;7477;45.222;5.688;2022-09-09T08:18:33;17.20;99.90
14771;DHT22;7477;45.222;5.688;2022-09-09T08:21:53;17.20;99.90
14771;DHT22;7477;45.222;5.688;2022-09-09T08:25:13;17.20;99.90
14771;DHT22;7477;45.222;5.688;2022-09-09T08:28:32;17.40;99.90
14771;DHT22;7477;45.222;5.688;2022-09-09T08:31:53;17.50;99.90
14771;DHT22;7477;45.222;5.688;2022-09-09T08:35:16;17.60;99.90
14771;DHT22;7477;45.222;5.688;2022-09-09T08:38:37;17.60;99.90
14771;DHT22;7477;45.222;5.688;2022-09-09T08:56:31;18.00;99.90
14771;DHT22;7477;45.222;5.688;2022-09-09T08:59:51;18.00;99.90
14771;DHT22;7477;45.222;5.688;2022-09-09T09:13:57;18.60;99.90
14771;DHT22;7477;45.222;5.688;2022-09-09T09:17:22;18.90;99.90
14771;DHT22;7477;45.222;5.688;2022-09-09T09:21:32;19.00;99.90
14771;DHT22;7477;45.222;5.688;2022-09-09T09:28:26;19.60;99.90
14771;DHT22;7477;45.222;5.688;2022-09-09T09:31:59;19.40;99.90
14771;DHT22;7477;45.222;5.688;2022-09-09T09:35:20;19.60;99.90
14771;DHT22;7477;45.222;5.688;2022-09-09T09:38:50;19.80;99.90
14771;DHT22;7477;45.222;5.688;2022-09-09T09:42:11;19.90;99.90
14771;DHT22;7477;45.222;5.688;2022-09-09T09:45:43;19.80;99.90
14771;DHT22;7477;45.222;5.688;2022-09-09T09:49:09;19.80;99.90
14771;DHT22;7477;45.222;5.688;2022-09-09T09:52:30;19.90;99.90
14771;DHT22;7477;45.222;5.688;2022-09-09T09:59:34;20.20;99.90
14771;DHT22;7477;45.222;5.688;2022-09-09T10:02:54;20.10;99.90
14771;DHT22;7477;45.222;5.688;2022-09-09T10:06:13;20.10;99.90
14771;DHT22;7477;45.222;5.688;2022-09-09T10:09:32;20.20;99.90
14771;DHT22;7477;45.222;5.688;2022-09-09T10:27:46;20.60;98.00
14771;DHT22;7477;45.222;5.688;2022-09-09T10:31:30;20.60;97.70
14771;DHT22;7477;45.222;5.688;2022-09-09T10:38:50;20.40;98.80
14771;DHT22;7477;45.222;5.688;2022-09-09T10:42:16;20.30;99.70
14771;DHT22;7477;45.222;5.688;2022-09-09T10:45:57;20.30;99.20
14771;DHT22;7477;45.222;5.688;2022-09-09T10:49:31;20.30;99.10
14771;DHT22;7477;45.222;5.688;2022-09-09T10:53:02;20.20;99.40
14771;DHT22;7477;45.222;5.688;2022-09-09T10:56:22;20.30;99.30
14771;DHT22;7477;45.222;5.688;2022-09-09T10:59:48;20.30;99.90
14771;DHT22;7477;45.222;5.688;2022-09-09T11:03:20;20.30;99.90
14771;DHT22;7477;45.222;5.688;2022-09-09T11:06:44;20.30;99.50
14771;DHT22;7477;45.222;5.688;2022-09-09T11:10:14;20.40;99.90
14771;DHT22;7477;45.222;5.688;2022-09-09T11:13:46;20.40;99.90
14771;DHT22;7477;45.222;5.688;2022-09-09T11:17:16;20.40;99.90
14771;DHT22;7477;45.222;5.688;2022-09-09T11:20:37;20.50;99.90
14771;DHT22;7477;45.222;5.688;2022-09-09T11:24:01;20.50;99.90
14771;DHT22;7477;45.222;5.688;2022-09-09T11:27:27;20.70;99.90
14771;DHT22;7477;45.222;5.688;2022-09-09T11:34:19;20.70;99.90
14771;DHT22;7477;45.222;5.688;2022-09-09T11:41:16;20.70;99.90
14771;DHT22;7477;45.222;5.688;2022-09-09T11:44:36;20.60;99.90
14771;DHT22;7477;45.222;5.688;2022-09-09T11:48:00;21.00;97.20
14771;DHT22;7477;45.222;5.688;2022-09-09T11:54:48;21.10;98.80
14771;DHT22;7477;45.222;5.688;2022-09-09T12:01:33;20.90;99.10
14771;DHT22;7477;45.222;5.688;2022-09-09T12:05:11;21.00;97.00
14771;DHT22;7477;45.222;5.688;2022-09-09T12:08:31;21.10;95.90
14771;DHT22;7477;45.222;5.688;2022-09-09T12:11:51;21.30;95.20
14771;DHT22;7477;45.222;5.688;2022-09-09T12:18:36;21.20;97.20
14771;DHT22;7477;45.222;5.688;2022-09-09T12:29:27;21.30;95.10
14771;DHT22;7477;45.222;5.688;2022-09-09T12:33:00;21.30;94.30
14771;DHT22;7477;45.222;5.688;2022-09-09T12:36:28;21.40;95.60
14771;DHT22;7477;45.222;5.688;2022-09-09T12:39:56;21.60;92.60
14771;DHT22;7477;45.222;5.688;2022-09-09T12:43:20;21.60;92.70
14771;DHT22;7477;45.222;5.688;2022-09-09T12:46:45;21.80;91.50
14771;DHT22;7477;45.222;5.688;2022-09-09T12:50:10;21.70;92.80
14771;DHT22;7477;45.222;5.688;2022-09-09T12:53:35;21.70;90.80
14771;DHT22;7477;45.222;5.688;2022-09-09T12:56:55;21.90;88.10
14771;DHT22;7477;45.222;5.688;2022-09-09T13:00:17;22.00;89.10
14771;DHT22;7477;45.222;5.688;2022-09-09T13:03:42;22.10;88.80
14771;DHT22;7477;45.222;5.688;2022-09-09T13:07:07;21.90;88.40
14771;DHT22;7477;45.222;5.688;2022-09-09T13:10:33;21.80;90.90
14771;DHT22;7477;45.222;5.688;2022-09-09T13:13:55;22.00;87.10
14771;DHT22;7477;45.222;5.688;2022-09-09T13:17:19;21.80;88.40
14771;DHT22;7477;45.222;5.688;2022-09-09T13:20:39;21.90;90.00
14771;DHT22;7477;45.222;5.688;2022-09-09T13:24:21;22.10;83.70
14771;DHT22;7477;45.222;5.688;2022-09-09T13:27:50;22.60;82.20
14771;DHT22;7477;45.222;5.688;2022-09-09T13:31:44;22.60;82.10
14771;DHT22;7477;45.222;5.688;2022-09-09T13:35:04;22.60;83.50
14771;DHT22;7477;45.222;5.688;2022-09-09T13:38:27;22.70;79.40
14771;DHT22;7477;45.222;5.688;2022-09-09T13:41:48;22.80;80.10
14771;DHT22;7477;45.222;5.688;2022-09-09T13:45:17;22.90;79.70
14771;DHT22;7477;45.222;5.688;2022-09-09T13:48:36;23.00;79.20
14771;DHT22;7477;45.222;5.688;2022-09-09T13:52:13;23.10;78.30
14771;DHT22;7477;45.222;5.688;2022-09-09T13:55:36;23.00;76.60
14771;DHT22;7477;45.222;5.688;2022-09-09T13:58:55;23.20;76.40
14771;DHT22;7477;45.222;5.688;2022-09-09T14:02:16;23.20;75.70
14771;DHT22;7477;45.222;5.688;2022-09-09T14:05:35;22.70;77.90
14771;DHT22;7477;45.222;5.688;2022-09-09T14:08:55;23.00;74.70
14771;DHT22;7477;45.222;5.688;2022-09-09T14:12:15;23.20;72.80
14771;DHT22;7477;45.222;5.688;2022-09-09T14:15:34;23.30;72.00
14771;DHT22;7477;45.222;5.688;2022-09-09T14:18:53;23.10;72.60
14771;DHT22;7477;45.222;5.688;2022-09-09T14:22:15;23.00;73.90
14771;DHT22;7477;45.222;5.688;2022-09-09T14:25:34;23.10;72.10
14771;DHT22;7477;45.222;5.688;2022-09-09T14:28:53;23.00;72.80
14771;DHT22;7477;45.222;5.688;2022-09-09T14:32:12;22.90;71.90
14771;DHT22;7477;45.222;5.688;2022-09-09T14:35:31;23.10;70.00
14771;DHT22;7477;45.222;5.688;2022-09-09T14:38:52;23.00;75.10
14771;DHT22;7477;45.222;5.688;2022-09-09T14:42:12;23.20;75.60
14771;DHT22;7477;45.222;5.688;2022-09-09T14:45:32;23.00;70.30
14771;DHT22;7477;45.222;5.688;2022-09-09T14:48:51;23.10;69.90
14771;DHT22;7477;45.222;5.688;2022-09-09T14:52:10;23.00;75.50
14771;DHT22;7477;45.222;5.688;2022-09-09T14:55:30;22.90;73.90
14771;DHT22;7477;45.222;5.688;2022-09-09T14:58:50;22.70;74.90
14771;DHT22;7477;45.222;5.688;2022-09-09T15:02:11;22.70;73.30
14771;DHT22;7477;45.222;5.688;2022-09-09T15:05:32;23.20;69.70
14771;DHT22;7477;45.222;5.688;2022-09-09T15:08:53;23.10;70.60
14771;DHT22;7477;45.222;5.688;2022-09-09T15:12:12;23.10;71.00
14771;DHT22;7477;45.222;5.688;2022-09-09T15:15:33;23.40;67.30
14771;DHT22;7477;45.222;5.688;2022-09-09T15:18:55;23.40;67.40
14771;DHT22;7477;45.222;5.688;2022-09-09T15:22:15;23.20;69.40
14771;DHT22;7477;45.222;5.688;2022-09-09T15:25:34;23.60;66.60
14771;DHT22;7477;45.222;5.688;2022-09-09T15:28:54;23.70;67.10
14771;DHT22;7477;45.222;5.688;2022-09-09T15:32:13;23.70;71.40
14771;DHT22;7477;45.222;5.688;2022-09-09T15:35:32;23.40;71.90
14771;DHT22;7477;45.222;5.688;2022-09-09T15:38:52;23.70;71.60
14771;DHT22;7477;45.222;5.688;2022-09-09T15:42:12;24.10;68.00
14771;DHT22;7477;45.222;5.688;2022-09-09T15:45:31;23.90;68.80
14771;DHT22;7477;45.222;5.688;2022-09-09T15:48:53;24.00;70.00
14771;DHT22;7477;45.222;5.688;2022-09-09T15:52:13;23.80;71.40
14771;DHT22;7477;45.222;5.688;2022-09-09T15:55:32;23.80;71.40
14771;DHT22;7477;45.222;5.688;2022-09-09T15:58:51;24.20;68.90
14771;DHT22;7477;45.222;5.688;2022-09-09T16:02:10;24.10;68.40
14771;DHT22;7477;45.222;5.688;2022-09-09T16:05:29;24.00;70.60
14771;DHT22;7477;45.222;5.688;2022-09-09T16:08:51;24.00;71.60
14771;DHT22;7477;45.222;5.688;2022-09-09T16:12:10;24.00;66.70
14771;DHT22;7477;45.222;5.688;2022-09-09T16:15:31;24.10;67.90
14771;DHT22;7477;45.222;5.688;2022-09-09T16:18:52;24.70;65.30
14771;DHT22;7477;45.222;5.688;2022-09-09T16:22:12;24.80;66.20
14771;DHT22;7477;45.222;5.688;2022-09-09T16:25:34;24.50;67.70
14771;DHT22;7477;45.222;5.688;2022-09-09T16:28:53;24.60;66.60
14771;DHT22;7477;45.222;5.688;2022-09-09T16:32:13;24.20;68.00
14771;DHT22;7477;45.222;5.688;2022-09-09T16:35:36;24.20;67.40
14771;DHT22;7477;45.222;5.688;2022-09-09T16:39:00;24.10;69.50
14771;DHT22;7477;45.222;5.688;2022-09-09T16:42:19;24.50;67.70
14771;DHT22;7477;45.222;5.688;2022-09-09T16:45:43;24.50;67.50
14771;DHT22;7477;45.222;5.688;2022-09-09T16:49:05;24.60;67.70
14771;DHT22;7477;45.222;5.688;2022-09-09T16:52:24;24.40;66.50
14771;DHT22;7477;45.222;5.688;2022-09-09T16:55:43;24.00;68.80
14771;DHT22;7477;45.222;5.688;2022-09-09T16:59:05;23.90;68.90
14771;DHT22;7477;45.222;5.688;2022-09-09T17:02:25;23.90;68.80
14771;DHT22;7477;45.222;5.688;2022-09-09T17:05:44;23.80;67.90
14771;DHT22;7477;45.222;5.688;2022-09-09T17:09:07;23.80;67.10
14771;DHT22;7477;45.222;5.688;2022-09-09T17:12:26;23.70;68.30
14771;DHT22;7477;45.222;5.688;2022-09-09T17:15:45;23.60;69.30
14771;DHT22;7477;45.222;5.688;2022-09-09T17:19:04;23.50;69.40
14771;DHT22;7477;45.222;5.688;2022-09-09T17:22:24;23.40;68.90
14771;DHT22;7477;45.222;5.688;2022-09-09T17:25:56;23.30;68.50
14771;DHT22;7477;45.222;5.688;2022-09-09T17:29:16;23.20;69.20
14771;DHT22;7477;45.222;5.688;2022-09-09T17:32:36;23.20;69.80
14771;DHT22;7477;45.222;5.688;2022-09-09T17:35:55;23.10;70.60
14771;DHT22;7477;45.222;5.688;2022-09-09T17:39:14;22.80;71.30
14771;DHT22;7477;45.222;5.688;2022-09-09T17:42:33;22.70;71.20
14771;DHT22;7477;45.222;5.688;2022-09-09T17:45:53;22.60;70.40
14771;DHT22;7477;45.222;5.688;2022-09-09T17:49:15;22.50;71.20
14771;DHT22;7477;45.222;5.688;2022-09-09T17:52:34;22.50;72.10
14771;DHT22;7477;45.222;5.688;2022-09-09T17:55:54;22.40;71.10
14771;DHT22;7477;45.222;5.688;2022-09-09T17:59:15;22.40;71.30
14771;DHT22;7477;45.222;5.688;2022-09-09T18:02:35;22.40;71.20
14771;DHT22;7477;45.222;5.688;2022-09-09T18:06:03;22.30;72.70
14771;DHT22;7477;45.222;5.688;2022-09-09T18:09:24;22.10;71.90
14771;DHT22;7477;45.222;5.688;2022-09-09T18:12:44;22.10;71.30
14771;DHT22;7477;45.222;5.688;2022-09-09T18:16:06;22.10;71.10
14771;DHT22;7477;45.222;5.688;2022-09-09T18:19:30;22.20;72.10
14771;DHT22;7477;45.222;5.688;2022-09-09T18:22:49;22.20;72.50
14771;DHT22;7477;45.222;5.688;2022-09-09T18:26:11;22.10;74.40
14771;DHT22;7477;45.222;5.688;2022-09-09T18:29:30;21.90;74.30
14771;DHT22;7477;45.222;5.688;2022-09-09T18:32:50;21.90;74.60
14771;DHT22;7477;45.222;5.688;2022-09-09T18:36:14;21.80;76.00
14771;DHT22;7477;45.222;5.688;2022-09-09T18:39:33;21.80;75.00
14771;DHT22;7477;45.222;5.688;2022-09-09T18:42:53;21.70;74.70
14771;DHT22;7477;45.222;5.688;2022-09-09T18:46:12;21.70;74.00
14771;DHT22;7477;45.222;5.688;2022-09-09T18:49:32;21.60;74.70
14771;DHT22;7477;45.222;5.688;2022-09-09T18:52:51;21.50;74.90
14771;DHT22;7477;45.222;5.688;2022-09-09T18:56:12;21.50;73.90
14771;DHT22;7477;45.222;5.688;2022-09-09T18:59:32;21.50;73.10
14771;DHT22;7477;45.222;5.688;2022-09-09T19:02:51;21.50;73.40
14771;DHT22;7477;45.222;5.688;2022-09-09T19:06:13;21.40;73.90
14771;DHT22;7477;45.222;5.688;2022-09-09T19:09:33;21.30;74.30
14771;DHT22;7477;45.222;5.688;2022-09-09T19:12:52;21.30;74.60
14771;DHT22;7477;45.222;5.688;2022-09-09T19:16:13;21.30;74.80
14771;DHT22;7477;45.222;5.688;2022-09-09T19:19:33;21.20;75.20
14771;DHT22;7477;45.222;5.688;2022-09-09T19:22:53;21.10;75.20
14771;DHT22;7477;45.222;5.688;2022-09-09T19:26:13;21.10;75.10
14771;DHT22;7477;45.222;5.688;2022-09-09T19:29:36;21.10;74.50
14771;DHT22;7477;45.222;5.688;2022-09-09T19:32:57;21.00;74.40
14771;DHT22;7477;45.222;5.688;2022-09-09T19:36:17;21.00;74.50
14771;DHT22;7477;45.222;5.688;2022-09-09T19:39:37;21.00;75.00
14771;DHT22;7477;45.222;5.688;2022-09-09T19:42:56;20.90;75.50
14771;DHT22;7477;45.222;5.688;2022-09-09T19:46:16;20.80;75.90
14771;DHT22;7477;45.222;5.688;2022-09-09T19:49:39;20.90;76.30
14771;DHT22;7477;45.222;5.688;2022-09-09T19:52:59;20.80;76.30
14771;DHT22;7477;45.222;5.688;2022-09-09T19:56:21;20.90;76.40
14771;DHT22;7477;45.222;5.688;2022-09-09T19:59:41;20.80;76.40
14771;DHT22;7477;45.222;5.688;2022-09-09T20:03:00;20.80;77.30
14771;DHT22;7477;45.222;5.688;2022-09-09T20:06:22;20.80;78.80
14771;DHT22;7477;45.222;5.688;2022-09-09T20:09:42;20.70;81.10
14771;DHT22;7477;45.222;5.688;2022-09-09T20:13:01;20.70;81.90
14771;DHT22;7477;45.222;5.688;2022-09-09T20:16:25;20.80;82.20
14771;DHT22;7477;45.222;5.688;2022-09-09T20:19:45;20.90;81.30
14771;DHT22;7477;45.222;5.688;2022-09-09T20:23:04;20.90;82.80
14771;DHT22;7477;45.222;5.688;2022-09-09T20:26:24;20.80;85.00
14771;DHT22;7477;45.222;5.688;2022-09-09T20:29:44;20.70;86.70
14771;DHT22;7477;45.222;5.688;2022-09-09T20:33:05;20.60;87.40
14771;DHT22;7477;45.222;5.688;2022-09-09T20:36:29;20.50;88.50
14771;DHT22;7477;45.222;5.688;2022-09-09T20:39:48;20.50;88.80
14771;DHT22;7477;45.222;5.688;2022-09-09T20:43:10;20.40;89.20
14771;DHT22;7477;45.222;5.688;2022-09-09T20:46:33;20.40;89.20
14771;DHT22;7477;45.222;5.688;2022-09-09T20:49:54;20.30;89.30
14771;DHT22;7477;45.222;5.688;2022-09-09T20:53:14;20.30;88.60
14771;DHT22;7477;45.222;5.688;2022-09-09T20:56:35;20.30;88.60
14771;DHT22;7477;45.222;5.688;2022-09-09T20:59:58;20.30;88.50
14771;DHT22;7477;45.222;5.688;2022-09-09T21:03:18;20.30;89.00
14771;DHT22;7477;45.222;5.688;2022-09-09T21:06:37;20.20;89.10
14771;DHT22;7477;45.222;5.688;2022-09-09T21:09:56;20.20;89.00
14771;DHT22;7477;45.222;5.688;2022-09-09T21:13:15;20.20;89.40
14771;DHT22;7477;45.222;5.688;2022-09-09T21:16:34;20.20;89.50
14771;DHT22;7477;45.222;5.688;2022-09-09T21:19:53;20.30;89.80
14771;DHT22;7477;45.222;5.688;2022-09-09T21:23:14;20.40;89.40
14771;DHT22;7477;45.222;5.688;2022-09-09T21:26:33;20.40;89.40
14771;DHT22;7477;45.222;5.688;2022-09-09T21:29:53;20.50;89.50
14771;DHT22;7477;45.222;5.688;2022-09-09T21:33:13;20.50;89.40
14771;DHT22;7477;45.222;5.688;2022-09-09T21:36:32;20.40;90.00
14771;DHT22;7477;45.222;5.688;2022-09-09T21:39:52;20.30;90.10
14771;DHT22;7477;45.222;5.688;2022-09-09T21:43:13;20.20;90.20
14771;DHT22;7477;45.222;5.688;2022-09-09T21:46:32;20.20;90.30
14771;DHT22;7477;45.222;5.688;2022-09-09T21:49:51;20.30;90.30
14771;DHT22;7477;45.222;5.688;2022-09-09T21:53:12;20.20;90.50
14771;DHT22;7477;45.222;5.688;2022-09-09T21:56:34;20.40;90.50
14771;DHT22;7477;45.222;5.688;2022-09-09T21:59:53;20.30;90.70
14771;DHT22;7477;45.222;5.688;2022-09-09T22:03:14;20.20;91.00
14771;DHT22;7477;45.222;5.688;2022-09-09T22:06:34;20.20;91.00
14771;DHT22;7477;45.222;5.688;2022-09-09T22:09:53;20.20;91.50
14771;DHT22;7477;45.222;5.688;2022-09-09T22:13:14;20.40;90.80
14771;DHT22;7477;45.222;5.688;2022-09-09T22:16:34;20.50;91.00
14771;DHT22;7477;45.222;5.688;2022-09-09T22:19:54;20.40;91.20
14771;DHT22;7477;45.222;5.688;2022-09-09T22:23:14;20.40;91.50
14771;DHT22;7477;45.222;5.688;2022-09-09T22:26:35;20.40;91.80
14771;DHT22;7477;45.222;5.688;2022-09-09T22:29:54;20.20;92.40
14771;DHT22;7477;45.222;5.688;2022-09-09T22:33:14;20.30;92.60
14771;DHT22;7477;45.222;5.688;2022-09-09T22:36:33;20.00;93.40
14771;DHT22;7477;45.222;5.688;2022-09-09T22:39:52;19.70;94.60
14771;DHT22;7477;45.222;5.688;2022-09-09T22:43:14;19.50;94.90
14771;DHT22;7477;45.222;5.688;2022-09-09T22:46:35;19.40;95.40
14771;DHT22;7477;45.222;5.688;2022-09-09T22:49:56;19.30;95.50
14771;DHT22;7477;45.222;5.688;2022-09-09T22:53:17;19.30;95.30
14771;DHT22;7477;45.222;5.688;2022-09-09T22:56:39;19.40;95.50
14771;DHT22;7477;45.222;5.688;2022-09-09T22:59:58;19.30;95.50
14771;DHT22;7477;45.222;5.688;2022-09-09T23:03:18;19.20;95.80
14771;DHT22;7477;45.222;5.688;2022-09-09T23:06:40;19.20;95.60
14771;DHT22;7477;45.222;5.688;2022-09-09T23:10:02;19.20;95.60
14771;DHT22;7477;45.222;5.688;2022-09-09T23:13:23;19.10;96.50
14771;DHT22;7477;45.222;5.688;2022-09-09T23:16:44;19.20;96.70
14771;DHT22;7477;45.222;5.688;2022-09-09T23:20:06;19.40;96.60
14771;DHT22;7477;45.222;5.688;2022-09-09T23:23:29;19.20;96.80
14771;DHT22;7477;45.222;5.688;2022-09-09T23:26:48;19.40;96.90
14771;DHT22;7477;45.222;5.688;2022-09-09T23:30:08;19.20;97.30